sensor_id;sensor_type;location;lat;lon;timestamp;P1;durP1;ratioP1;P2;durP2;ratioP2
25936;SDS011;13733;51.178;4.450;2023-07-31T00:02:08;16.67;;;7.10;;
25936;SDS011;13733;51.178;4.450;2023-07-31T00:04:34;23.15;;;7.90;;
25936;SDS011;13733;51.178;4.450;2023-07-31T00:06:59;18.52;;;7.22;;
25936;SDS011;13733;51.178;4.450;2023-07-31T00:09:25;20.38;;;7.50;;
25936;SDS011;13733;51.178;4.450;2023-07-31T00:11:51;17.45;;;6.90;;
25936;SDS011;13733;51.178;4.450;2023-07-31T00:14:16;22.00;;;6.82;;
25936;SDS011;13733;51.178;4.450;2023-07-31T00:16:42;21.85;;;7.65;;
25936;SDS011;13733;51.178;4.450;2023-07-31T00:19:08;20.25;;;7.50;;
25936;SDS011;13733;51.178;4.450;2023-07-31T00:21:33;25.23;;;7.65;;
25936;SDS011;13733;51.178;4.450;2023-07-31T00:23:59;22.20;;;6.90;;
25936;SDS011;13733;51.178;4.450;2023-07-31T00:26:25;23.15;;;7.45;;
25936;SDS011;13733;51.178;4.450;2023-07-31T00:28:50;24.75;;;7.10;;
25936;SDS011;13733;51.178;4.450;2023-07-31T00:31:16;20.02;;;7.15;;
25936;SDS011;13733;51.178;4.450;2023-07-31T00:33:42;23.95;;;7.10;;
25936;SDS011;13733;51.178;4.450;2023-07-31T00:36:08;23.52;;;7.38;;
25936;SDS011;13733;51.178;4.450;2023-07-31T00:38:33;24.25;;;7.25;;
25936;SDS011;13733;51.178;4.450;2023-07-31T00:40:59;22.77;;;7.90;;
25936;SDS011;13733;51.178;4.450;2023-07-31T00:43:25;20.42;;;7.55;;
25936;SDS011;13733;51.178;4.450;2023-07-31T00:45:51;28.10;;;8.05;;
25936;SDS011;13733;51.178;4.450;2023-07-31T00:48:16;27.52;;;7.72;;
25936;SDS011;13733;51.178;4.450;2023-07-31T00:50:42;26.38;;;7.88;;
25936;SDS011;13733;51.178;4.450;2023-07-31T00:53:08;26.25;;;8.13;;
25936;SDS011;13733;51.178;4.450;2023-07-31T00:55:34;18.13;;;6.80;;
25936;SDS011;13733;51.178;4.450;2023-07-31T00:58:00;26.17;;;8.13;;
25936;SDS011;13733;51.178;4.450;2023-07-31T01:00:26;15.98;;;6.88;;
25936;SDS011;13733;51.178;4.450;2023-07-31T01:02:51;21.38;;;7.88;;
25936;SDS011;13733;51.178;4.450;2023-07-31T01:05:23;22.13;;;7.05;;
25936;SDS011;13733;51.178;4.450;2023-07-31T01:10:55;21.10;;;7.22;;
25936;SDS011;13733;51.178;4.450;2023-07-31T01:13:24;24.85;;;7.97;;
25936;SDS011;13733;51.178;4.450;2023-07-31T01:15:50;22.15;;;7.05;;
25936;SDS011;13733;51.178;4.450;2023-07-31T01:18:15;18.10;;;7.05;;
25936;SDS011;13733;51.178;4.450;2023-07-31T01:20:41;19.40;;;7.95;;
25936;SDS011;13733;51.178;4.450;2023-07-31T01:25:54;19.90;;;8.05;;
25936;SDS011;13733;51.178;4.450;2023-07-31T01:28:32;20.13;;;7.43;;
25936;SDS011;13733;51.178;4.450;2023-07-31T01:31:25;19.52;;;6.95;;
25936;SDS011;13733;51.178;4.450;2023-07-31T01:33:53;18.98;;;6.38;;
25936;SDS011;13733;51.178;4.450;2023-07-31T01:36:21;24.23;;;8.07;;
25936;SDS011;13733;51.178;4.450;2023-07-31T01:38:48;22.17;;;7.57;;
25936;SDS011;13733;51.178;4.450;2023-07-31T01:41:16;19.42;;;6.95;;
25936;SDS011;13733;51.178;4.450;2023-07-31T01:43:42;21.42;;;6.70;;
25936;SDS011;13733;51.178;4.450;2023-07-31T01:46:08;21.75;;;7.13;;
25936;SDS011;13733;51.178;4.450;2023-07-31T01:48:33;23.02;;;7.55;;
25936;SDS011;13733;51.178;4.450;2023-07-31T01:51:02;23.08;;;7.15;;
25936;SDS011;13733;51.178;4.450;2023-07-31T01:53:28;21.10;;;7.30;;
25936;SDS011;13733;51.178;4.450;2023-07-31T01:55:56;19.75;;;7.05;;
25936;SDS011;13733;51.178;4.450;2023-07-31T01:58:21;18.38;;;7.22;;
25936;SDS011;13733;51.178;4.450;2023-07-31T02:00:47;26.17;;;6.80;;
25936;SDS011;13733;51.178;4.450;2023-07-31T02:03:13;25.92;;;7.00;;
25936;SDS011;13733;51.178;4.450;2023-07-31T02:05:45;16.67;;;6.80;;
25936;SDS011;13733;51.178;4.450;2023-07-31T02:08:15;25.10;;;7.20;;
25936;SDS011;13733;51.178;4.450;2023-07-31T02:10:41;23.35;;;7.45;;
25936;SDS011;13733;51.178;4.450;2023-07-31T02:13:07;24.38;;;7.10;;
25936;SDS011;13733;51.178;4.450;2023-07-31T02:15:32;21.73;;;7.88;;
25936;SDS011;13733;51.178;4.450;2023-07-31T02:17:58;24.73;;;7.75;;
25936;SDS011;13733;51.178;4.450;2023-07-31T02:20:24;20.08;;;6.95;;
25936;SDS011;13733;51.178;4.450;2023-07-31T02:22:50;23.63;;;7.40;;
25936;SDS011;13733;51.178;4.450;2023-07-31T02:25:16;19.73;;;7.07;;
25936;SDS011;13733;51.178;4.450;2023-07-31T02:27:44;20.65;;;6.80;;
25936;SDS011;13733;51.178;4.450;2023-07-31T02:30:10;19.70;;;7.35;;
25936;SDS011;13733;51.178;4.450;2023-07-31T02:32:36;20.35;;;7.43;;
25936;SDS011;13733;51.178;4.450;2023-07-31T02:35:02;20.05;;;6.78;;
25936;SDS011;13733;51.178;4.450;2023-07-31T02:37:28;22.95;;;6.93;;
25936;SDS011;13733;51.178;4.450;2023-07-31T02:39:54;24.27;;;6.65;;
25936;SDS011;13733;51.178;4.450;2023-07-31T02:42:20;18.92;;;6.47;;
25936;SDS011;13733;51.178;4.450;2023-07-31T02:44:46;18.40;;;6.15;;
25936;SDS011;13733;51.178;4.450;2023-07-31T02:47:13;21.25;;;6.35;;
25936;SDS011;13733;51.178;4.450;2023-07-31T02:49:39;21.35;;;6.65;;
25936;SDS011;13733;51.178;4.450;2023-07-31T02:52:04;24.58;;;6.35;;
25936;SDS011;13733;51.178;4.450;2023-07-31T02:54:30;15.35;;;5.80;;
25936;SDS011;13733;51.178;4.450;2023-07-31T02:56:56;16.77;;;6.13;;
25936;SDS011;13733;51.178;4.450;2023-07-31T02:59:22;21.15;;;6.88;;
25936;SDS011;13733;51.178;4.450;2023-07-31T03:01:48;23.92;;;6.15;;
25936;SDS011;13733;51.178;4.450;2023-07-31T03:04:13;27.20;;;7.22;;
25936;SDS011;13733;51.178;4.450;2023-07-31T03:06:39;21.33;;;6.63;;
25936;SDS011;13733;51.178;4.450;2023-07-31T03:09:05;20.90;;;7.13;;
25936;SDS011;13733;51.178;4.450;2023-07-31T03:11:31;21.13;;;6.28;;
25936;SDS011;13733;51.178;4.450;2023-07-31T03:13:57;21.05;;;6.78;;
25936;SDS011;13733;51.178;4.450;2023-07-31T03:16:23;19.10;;;5.95;;
25936;SDS011;13733;51.178;4.450;2023-07-31T03:18:48;20.15;;;6.57;;
25936;SDS011;13733;51.178;4.450;2023-07-31T03:21:14;19.88;;;6.78;;
25936;SDS011;13733;51.178;4.450;2023-07-31T03:23:40;19.15;;;6.25;;
25936;SDS011;13733;51.178;4.450;2023-07-31T03:26:06;23.38;;;6.70;;
25936;SDS011;13733;51.178;4.450;2023-07-31T03:28:33;22.45;;;6.47;;
25936;SDS011;13733;51.178;4.450;2023-07-31T03:30:58;15.48;;;5.90;;
25936;SDS011;13733;51.178;4.450;2023-07-31T03:33:25;18.40;;;5.93;;
25936;SDS011;13733;51.178;4.450;2023-07-31T03:35:51;24.98;;;7.07;;
25936;SDS011;13733;51.178;4.450;2023-07-31T03:38:17;17.13;;;6.30;;
25936;SDS011;13733;51.178;4.450;2023-07-31T03:40:43;15.20;;;5.40;;
25936;SDS011;13733;51.178;4.450;2023-07-31T03:43:10;20.58;;;6.38;;
25936;SDS011;13733;51.178;4.450;2023-07-31T03:45:38;16.60;;;6.28;;
25936;SDS011;13733;51.178;4.450;2023-07-31T03:48:04;14.45;;;6.00;;
25936;SDS011;13733;51.178;4.450;2023-07-31T03:50:30;16.48;;;6.38;;
25936;SDS011;13733;51.178;4.450;2023-07-31T03:52:56;18.20;;;6.35;;
25936;SDS011;13733;51.178;4.450;2023-07-31T03:55:21;22.90;;;6.78;;
25936;SDS011;13733;51.178;4.450;2023-07-31T03:57:47;16.38;;;6.45;;
25936;SDS011;13733;51.178;4.450;2023-07-31T04:00:13;19.60;;;6.80;;
25936;SDS011;13733;51.178;4.450;2023-07-31T04:02:40;21.33;;;7.38;;
25936;SDS011;13733;51.178;4.450;2023-07-31T04:05:06;15.15;;;6.22;;
25936;SDS011;13733;51.178;4.450;2023-07-31T04:07:33;21.45;;;7.78;;
25936;SDS011;13733;51.178;4.450;2023-07-31T04:09:59;16.63;;;7.28;;
25936;SDS011;13733;51.178;4.450;2023-07-31T04:12:25;17.58;;;6.90;;
25936;SDS011;13733;51.178;4.450;2023-07-31T04:14:51;21.17;;;7.25;;
25936;SDS011;13733;51.178;4.450;2023-07-31T04:17:17;17.10;;;7.35;;
25936;SDS011;13733;51.178;4.450;2023-07-31T04:19:43;16.95;;;6.93;;
25936;SDS011;13733;51.178;4.450;2023-07-31T04:22:09;11.82;;;6.22;;
25936;SDS011;13733;51.178;4.450;2023-07-31T04:24:34;19.60;;;6.88;;
25936;SDS011;13733;51.178;4.450;2023-07-31T04:27:00;17.10;;;6.78;;
25936;SDS011;13733;51.178;4.450;2023-07-31T04:29:26;14.20;;;6.68;;
25936;SDS011;13733;51.178;4.450;2023-07-31T04:31:52;12.05;;;6.57;;
25936;SDS011;13733;51.178;4.450;2023-07-31T04:34:18;16.05;;;6.82;;
25936;SDS011;13733;51.178;4.450;2023-07-31T04:36:43;16.63;;;7.28;;
25936;SDS011;13733;51.178;4.450;2023-07-31T04:39:09;14.48;;;6.40;;
25936;SDS011;13733;51.178;4.450;2023-07-31T04:41:35;14.02;;;7.38;;
25936;SDS011;13733;51.178;4.450;2023-07-31T04:44:01;19.55;;;8.07;;
25936;SDS011;13733;51.178;4.450;2023-07-31T04:46:28;13.82;;;6.63;;
25936;SDS011;13733;51.178;4.450;2023-07-31T04:48:54;17.60;;;6.75;;
25936;SDS011;13733;51.178;4.450;2023-07-31T04:51:20;17.73;;;7.03;;
25936;SDS011;13733;51.178;4.450;2023-07-31T04:53:46;18.63;;;7.70;;
25936;SDS011;13733;51.178;4.450;2023-07-31T04:56:12;15.27;;;7.15;;
25936;SDS011;13733;51.178;4.450;2023-07-31T04:58:37;12.85;;;6.43;;
25936;SDS011;13733;51.178;4.450;2023-07-31T05:01:03;14.93;;;6.95;;
25936;SDS011;13733;51.178;4.450;2023-07-31T05:03:29;13.02;;;6.25;;
25936;SDS011;13733;51.178;4.450;2023-07-31T05:05:55;16.00;;;6.15;;
25936;SDS011;13733;51.178;4.450;2023-07-31T05:08:21;13.68;;;6.97;;
25936;SDS011;13733;51.178;4.450;2023-07-31T05:10:46;15.73;;;6.40;;
25936;SDS011;13733;51.178;4.450;2023-07-31T05:13:12;12.48;;;6.50;;
25936;SDS011;13733;51.178;4.450;2023-07-31T05:15:38;12.60;;;7.18;;
25936;SDS011;13733;51.178;4.450;2023-07-31T05:18:06;10.43;;;6.53;;
25936;SDS011;13733;51.178;4.450;2023-07-31T05:20:32;14.80;;;6.85;;
25936;SDS011;13733;51.178;4.450;2023-07-31T05:22:58;13.05;;;7.28;;
25936;SDS011;13733;51.178;4.450;2023-07-31T05:25:24;15.00;;;7.10;;
25936;SDS011;13733;51.178;4.450;2023-07-31T05:27:50;13.30;;;7.00;;
25936;SDS011;13733;51.178;4.450;2023-07-31T05:30:15;12.20;;;6.97;;
25936;SDS011;13733;51.178;4.450;2023-07-31T05:32:41;16.58;;;7.90;;
25936;SDS011;13733;51.178;4.450;2023-07-31T05:35:07;17.40;;;7.75;;
25936;SDS011;13733;51.178;4.450;2023-07-31T05:37:34;15.35;;;7.70;;
25936;SDS011;13733;51.178;4.450;2023-07-31T05:40:00;17.75;;;7.63;;
25936;SDS011;13733;51.178;4.450;2023-07-31T05:42:25;10.02;;;6.85;;
25936;SDS011;13733;51.178;4.450;2023-07-31T05:44:51;15.02;;;6.70;;
25936;SDS011;13733;51.178;4.450;2023-07-31T05:47:17;13.20;;;6.85;;
25936;SDS011;13733;51.178;4.450;2023-07-31T05:49:43;15.43;;;7.97;;
25936;SDS011;13733;51.178;4.450;2023-07-31T05:52:10;14.82;;;7.40;;
25936;SDS011;13733;51.178;4.450;2023-07-31T05:54:36;14.82;;;7.30;;
25936;SDS011;13733;51.178;4.450;2023-07-31T05:57:01;13.40;;;7.03;;
25936;SDS011;13733;51.178;4.450;2023-07-31T05:59:27;10.23;;;7.47;;
25936;SDS011;13733;51.178;4.450;2023-07-31T06:01:53;13.95;;;7.43;;
25936;SDS011;13733;51.178;4.450;2023-07-31T06:04:19;12.23;;;7.22;;
25936;SDS011;13733;51.178;4.450;2023-07-31T06:06:45;10.57;;;6.72;;
25936;SDS011;13733;51.178;4.450;2023-07-31T06:09:10;14.15;;;6.88;;
25936;SDS011;13733;51.178;4.450;2023-07-31T06:11:37;12.75;;;7.53;;
25936;SDS011;13733;51.178;4.450;2023-07-31T06:14:02;13.20;;;7.28;;
25936;SDS011;13733;51.178;4.450;2023-07-31T06:16:28;12.93;;;7.28;;
25936;SDS011;13733;51.178;4.450;2023-07-31T06:18:54;12.88;;;7.00;;
25936;SDS011;13733;51.178;4.450;2023-07-31T06:21:20;15.32;;;6.97;;
25936;SDS011;13733;51.178;4.450;2023-07-31T06:23:45;11.48;;;7.32;;
25936;SDS011;13733;51.178;4.450;2023-07-31T06:26:11;10.68;;;7.20;;
25936;SDS011;13733;51.178;4.450;2023-07-31T06:28:37;16.88;;;7.25;;
25936;SDS011;13733;51.178;4.450;2023-07-31T06:31:03;9.75;;;6.63;;
25936;SDS011;13733;51.178;4.450;2023-07-31T06:33:28;14.55;;;6.53;;
25936;SDS011;13733;51.178;4.450;2023-07-31T06:35:54;15.73;;;7.13;;
25936;SDS011;13733;51.178;4.450;2023-07-31T06:38:24;19.92;;;6.47;;
25936;SDS011;13733;51.178;4.450;2023-07-31T06:40:51;14.80;;;7.03;;
25936;SDS011;13733;51.178;4.450;2023-07-31T06:43:17;14.18;;;6.35;;
25936;SDS011;13733;51.178;4.450;2023-07-31T06:45:42;11.07;;;6.18;;
25936;SDS011;13733;51.178;4.450;2023-07-31T06:48:08;13.43;;;6.07;;
25936;SDS011;13733;51.178;4.450;2023-07-31T06:50:34;11.23;;;6.18;;
25936;SDS011;13733;51.178;4.450;2023-07-31T06:53:00;16.73;;;6.57;;
25936;SDS011;13733;51.178;4.450;2023-07-31T06:55:28;14.73;;;6.68;;
25936;SDS011;13733;51.178;4.450;2023-07-31T06:57:54;14.82;;;6.25;;
25936;SDS011;13733;51.178;4.450;2023-07-31T07:00:21;16.20;;;6.18;;
25936;SDS011;13733;51.178;4.450;2023-07-31T07:02:48;13.48;;;6.22;;
25936;SDS011;13733;51.178;4.450;2023-07-31T07:05:14;13.15;;;6.57;;
25936;SDS011;13733;51.178;4.450;2023-07-31T07:07:41;13.18;;;6.03;;
25936;SDS011;13733;51.178;4.450;2023-07-31T07:10:07;12.48;;;6.25;;
25936;SDS011;13733;51.178;4.450;2023-07-31T07:12:34;15.68;;;6.60;;
25936;SDS011;13733;51.178;4.450;2023-07-31T07:15:00;17.25;;;7.57;;
25936;SDS011;13733;51.178;4.450;2023-07-31T07:17:28;13.55;;;5.95;;
25936;SDS011;13733;51.178;4.450;2023-07-31T07:19:57;15.65;;;6.15;;
25936;SDS011;13733;51.178;4.450;2023-07-31T07:22:24;14.85;;;6.03;;
25936;SDS011;13733;51.178;4.450;2023-07-31T07:24:50;14.48;;;6.50;;
25936;SDS011;13733;51.178;4.450;2023-07-31T07:27:16;13.40;;;6.22;;
25936;SDS011;13733;51.178;4.450;2023-07-31T07:29:43;10.80;;;5.43;;
25936;SDS011;13733;51.178;4.450;2023-07-31T07:32:08;10.48;;;5.55;;
25936;SDS011;13733;51.178;4.450;2023-07-31T07:34:34;11.05;;;5.40;;
25936;SDS011;13733;51.178;4.450;2023-07-31T07:37:00;10.13;;;5.82;;
25936;SDS011;13733;51.178;4.450;2023-07-31T07:39:26;14.50;;;6.05;;
25936;SDS011;13733;51.178;4.450;2023-07-31T07:41:52;13.65;;;5.95;;
25936;SDS011;13733;51.178;4.450;2023-07-31T07:44:19;13.82;;;5.88;;
25936;SDS011;13733;51.178;4.450;2023-07-31T07:46:44;11.45;;;5.55;;
25936;SDS011;13733;51.178;4.450;2023-07-31T07:49:10;13.82;;;5.32;;
25936;SDS011;13733;51.178;4.450;2023-07-31T07:51:36;11.27;;;5.07;;
25936;SDS011;13733;51.178;4.450;2023-07-31T07:54:02;9.27;;;4.75;;
25936;SDS011;13733;51.178;4.450;2023-07-31T07:56:27;9.60;;;5.07;;
25936;SDS011;13733;51.178;4.450;2023-07-31T07:58:54;12.70;;;5.80;;
25936;SDS011;13733;51.178;4.450;2023-07-31T08:01:20;11.82;;;5.82;;
25936;SDS011;13733;51.178;4.450;2023-07-31T08:03:46;10.82;;;5.47;;
25936;SDS011;13733;51.178;4.450;2023-07-31T08:06:13;12.57;;;4.60;;
25936;SDS011;13733;51.178;4.450;2023-07-31T08:08:39;12.25;;;5.25;;
25936;SDS011;13733;51.178;4.450;2023-07-31T08:11:05;11.15;;;4.30;;
25936;SDS011;13733;51.178;4.450;2023-07-31T08:13:31;11.85;;;4.55;;
25936;SDS011;13733;51.178;4.450;2023-07-31T08:15:57;11.32;;;4.53;;
25936;SDS011;13733;51.178;4.450;2023-07-31T08:18:23;7.53;;;4.30;;
25936;SDS011;13733;51.178;4.450;2023-07-31T08:20:49;14.05;;;5.10;;
25936;SDS011;13733;51.178;4.450;2023-07-31T08:23:15;8.02;;;5.00;;
25936;SDS011;13733;51.178;4.450;2023-07-31T08:25:40;9.90;;;4.50;;
25936;SDS011;13733;51.178;4.450;2023-07-31T08:28:07;11.63;;;4.80;;
25936;SDS011;13733;51.178;4.450;2023-07-31T08:30:33;7.90;;;4.18;;
25936;SDS011;13733;51.178;4.450;2023-07-31T08:32:59;9.57;;;4.78;;
25936;SDS011;13733;51.178;4.450;2023-07-31T08:35:25;8.18;;;4.50;;
25936;SDS011;13733;51.178;4.450;2023-07-31T08:37:53;10.82;;;4.82;;
25936;SDS011;13733;51.178;4.450;2023-07-31T08:40:19;11.40;;;4.47;;
25936;SDS011;13733;51.178;4.450;2023-07-31T08:42:48;9.48;;;4.22;;
25936;SDS011;13733;51.178;4.450;2023-07-31T08:45:17;8.27;;;4.35;;
25936;SDS011;13733;51.178;4.450;2023-07-31T08:47:47;10.30;;;4.72;;
25936;SDS011;13733;51.178;4.450;2023-07-31T08:50:16;8.32;;;4.00;;
25936;SDS011;13733;51.178;4.450;2023-07-31T08:52:43;9.20;;;3.97;;
25936;SDS011;13733;51.178;4.450;2023-07-31T08:55:11;8.88;;;4.10;;
25936;SDS011;13733;51.178;4.450;2023-07-31T08:57:37;9.38;;;4.18;;
25936;SDS011;13733;51.178;4.450;2023-07-31T09:00:04;7.88;;;4.00;;
25936;SDS011;13733;51.178;4.450;2023-07-31T09:05:13;6.95;;;3.88;;
25936;SDS011;13733;51.178;4.450;2023-07-31T09:07:41;6.50;;;3.60;;
25936;SDS011;13733;51.178;4.450;2023-07-31T09:10:11;7.65;;;4.00;;
25936;SDS011;13733;51.178;4.450;2023-07-31T09:12:39;8.35;;;3.80;;
25936;SDS011;13733;51.178;4.450;2023-07-31T09:15:05;8.25;;;4.07;;
25936;SDS011;13733;51.178;4.450;2023-07-31T09:17:32;8.18;;;3.78;;
25936;SDS011;13733;51.178;4.450;2023-07-31T09:23:08;5.90;;;3.63;;
25936;SDS011;13733;51.178;4.450;2023-07-31T09:25:35;8.88;;;3.50;;
25936;SDS011;13733;51.178;4.450;2023-07-31T09:28:03;6.50;;;3.95;;
25936;SDS011;13733;51.178;4.450;2023-07-31T09:30:30;8.50;;;4.20;;
25936;SDS011;13733;51.178;4.450;2023-07-31T09:33:05;10.02;;;4.15;;
25936;SDS011;13733;51.178;4.450;2023-07-31T09:35:35;9.10;;;3.70;;
25936;SDS011;13733;51.178;4.450;2023-07-31T09:38:09;12.15;;;4.22;;
25936;SDS011;13733;51.178;4.450;2023-07-31T09:40:37;6.50;;;3.50;;
25936;SDS011;13733;51.178;4.450;2023-07-31T09:43:05;8.45;;;3.75;;
25936;SDS011;13733;51.178;4.450;2023-07-31T09:45:37;8.07;;;3.95;;
25936;SDS011;13733;51.178;4.450;2023-07-31T09:48:08;10.43;;;4.03;;
25936;SDS011;13733;51.178;4.450;2023-07-31T09:50:40;11.50;;;4.10;;
25936;SDS011;13733;51.178;4.450;2023-07-31T09:53:08;9.25;;;3.88;;
25936;SDS011;13733;51.178;4.450;2023-07-31T09:55:35;7.15;;;4.00;;
25936;SDS011;13733;51.178;4.450;2023-07-31T09:58:03;12.68;;;4.20;;
25936;SDS011;13733;51.178;4.450;2023-07-31T10:00:30;8.70;;;4.50;;
25936;SDS011;13733;51.178;4.450;2023-07-31T10:03:00;11.55;;;4.38;;
25936;SDS011;13733;51.178;4.450;2023-07-31T10:05:31;7.82;;;4.80;;
25936;SDS011;13733;51.178;4.450;2023-07-31T10:08:01;8.27;;;4.30;;
25936;SDS011;13733;51.178;4.450;2023-07-31T10:10:28;7.38;;;4.10;;
25936;SDS011;13733;51.178;4.450;2023-07-31T10:12:55;14.18;;;4.88;;
25936;SDS011;13733;51.178;4.450;2023-07-31T10:15:23;8.80;;;4.57;;
25936;SDS011;13733;51.178;4.450;2023-07-31T10:17:50;8.82;;;4.35;;
25936;SDS011;13733;51.178;4.450;2023-07-31T10:20:17;9.32;;;4.68;;
25936;SDS011;13733;51.178;4.450;2023-07-31T10:22:43;10.82;;;5.18;;
25936;SDS011;13733;51.178;4.450;2023-07-31T10:25:11;8.65;;;4.50;;
25936;SDS011;13733;51.178;4.450;2023-07-31T10:27:40;9.05;;;4.18;;
25936;SDS011;13733;51.178;4.450;2023-07-31T10:30:12;5.20;;;3.60;;
25936;SDS011;13733;51.178;4.450;2023-07-31T10:32:40;11.93;;;3.85;;
25936;SDS011;13733;51.178;4.450;2023-07-31T10:35:08;5.68;;;3.25;;
25936;SDS011;13733;51.178;4.450;2023-07-31T10:37:42;6.55;;;4.10;;
25936;SDS011;13733;51.178;4.450;2023-07-31T10:42:47;7.97;;;4.43;;
25936;SDS011;13733;51.178;4.450;2023-07-31T10:45:13;8.32;;;4.28;;
25936;SDS011;13733;51.178;4.450;2023-07-31T10:47:49;8.95;;;4.50;;
25936;SDS011;13733;51.178;4.450;2023-07-31T10:50:23;7.78;;;4.80;;
25936;SDS011;13733;51.178;4.450;2023-07-31T10:55:26;9.35;;;4.93;;
25936;SDS011;13733;51.178;4.450;2023-07-31T10:57:57;8.38;;;4.97;;
25936;SDS011;13733;51.178;4.450;2023-07-31T11:00:30;9.75;;;5.15;;
25936;SDS011;13733;51.178;4.450;2023-07-31T11:02:56;9.60;;;5.22;;
25936;SDS011;13733;51.178;4.450;2023-07-31T11:10:44;9.43;;;5.60;;
25936;SDS011;13733;51.178;4.450;2023-07-31T11:13:11;10.63;;;5.57;;
25936;SDS011;13733;51.178;4.450;2023-07-31T11:15:37;10.90;;;5.60;;
25936;SDS011;13733;51.178;4.450;2023-07-31T11:18:03;13.35;;;6.35;;
25936;SDS011;13733;51.178;4.450;2023-07-31T11:20:31;10.88;;;6.05;;
25936;SDS011;13733;51.178;4.450;2023-07-31T11:23:04;12.82;;;6.20;;
25936;SDS011;13733;51.178;4.450;2023-07-31T11:25:33;8.93;;;5.80;;
25936;SDS011;13733;51.178;4.450;2023-07-31T11:28:05;8.77;;;5.60;;
25936;SDS011;13733;51.178;4.450;2023-07-31T11:30:33;11.27;;;5.53;;
25936;SDS011;13733;51.178;4.450;2023-07-31T11:33:00;13.75;;;6.22;;
25936;SDS011;13733;51.178;4.450;2023-07-31T11:35:29;12.90;;;6.30;;
25936;SDS011;13733;51.178;4.450;2023-07-31T11:37:58;11.45;;;6.13;;
25936;SDS011;13733;51.178;4.450;2023-07-31T11:40:24;12.48;;;5.68;;
25936;SDS011;13733;51.178;4.450;2023-07-31T11:42:56;14.07;;;5.63;;
25936;SDS011;13733;51.178;4.450;2023-07-31T11:45:30;11.32;;;5.72;;
25936;SDS011;13733;51.178;4.450;2023-07-31T11:47:57;12.88;;;6.05;;
25936;SDS011;13733;51.178;4.450;2023-07-31T11:50:25;10.98;;;6.15;;
25936;SDS011;13733;51.178;4.450;2023-07-31T11:52:55;14.30;;;6.35;;
25936;SDS011;13733;51.178;4.450;2023-07-31T11:55:23;12.23;;;5.85;;
25936;SDS011;13733;51.178;4.450;2023-07-31T11:57:51;11.52;;;6.22;;
25936;SDS011;13733;51.178;4.450;2023-07-31T12:00:19;14.00;;;6.45;;
25936;SDS011;13733;51.178;4.450;2023-07-31T12:02:45;11.68;;;5.80;;
25936;SDS011;13733;51.178;4.450;2023-07-31T12:05:12;13.73;;;6.15;;
25936;SDS011;13733;51.178;4.450;2023-07-31T12:07:52;12.75;;;5.80;;
25936;SDS011;13733;51.178;4.450;2023-07-31T12:10:37;11.05;;;5.68;;
25936;SDS011;13733;51.178;4.450;2023-07-31T12:13:09;10.30;;;5.32;;
25936;SDS011;13733;51.178;4.450;2023-07-31T12:15:45;12.07;;;5.53;;
25936;SDS011;13733;51.178;4.450;2023-07-31T12:18:19;10.73;;;5.57;;
25936;SDS011;13733;51.178;4.450;2023-07-31T12:20:46;11.32;;;5.70;;
25936;SDS011;13733;51.178;4.450;2023-07-31T12:23:15;13.60;;;6.25;;
25936;SDS011;13733;51.178;4.450;2023-07-31T12:28:35;11.70;;;6.03;;
25936;SDS011;13733;51.178;4.450;2023-07-31T12:31:03;12.63;;;4.90;;
25936;SDS011;13733;51.178;4.450;2023-07-31T12:33:36;10.18;;;5.53;;
25936;SDS011;13733;51.178;4.450;2023-07-31T12:36:06;10.45;;;5.50;;
25936;SDS011;13733;51.178;4.450;2023-07-31T12:38:42;11.43;;;5.25;;
25936;SDS011;13733;51.178;4.450;2023-07-31T12:41:08;12.80;;;5.75;;
25936;SDS011;13733;51.178;4.450;2023-07-31T12:43:34;17.63;;;6.43;;
25936;SDS011;13733;51.178;4.450;2023-07-31T12:46:01;12.32;;;5.70;;
25936;SDS011;13733;51.178;4.450;2023-07-31T12:48:27;10.98;;;5.15;;
25936;SDS011;13733;51.178;4.450;2023-07-31T12:50:52;10.70;;;5.82;;
25936;SDS011;13733;51.178;4.450;2023-07-31T12:53:18;10.93;;;5.43;;
25936;SDS011;13733;51.178;4.450;2023-07-31T12:55:44;12.40;;;6.15;;
25936;SDS011;13733;51.178;4.450;2023-07-31T12:58:10;14.25;;;6.10;;
25936;SDS011;13733;51.178;4.450;2023-07-31T13:00:35;14.63;;;5.28;;
25936;SDS011;13733;51.178;4.450;2023-07-31T13:03:02;13.35;;;5.78;;
25936;SDS011;13733;51.178;4.450;2023-07-31T13:05:28;9.93;;;5.50;;
25936;SDS011;13733;51.178;4.450;2023-07-31T13:07:54;13.05;;;6.30;;
25936;SDS011;13733;51.178;4.450;2023-07-31T13:10:20;10.50;;;5.40;;
25936;SDS011;13733;51.178;4.450;2023-07-31T13:12:47;10.10;;;5.47;;
25936;SDS011;13733;51.178;4.450;2023-07-31T13:15:13;9.55;;;4.93;;
25936;SDS011;13733;51.178;4.450;2023-07-31T13:17:39;12.55;;;5.90;;
25936;SDS011;13733;51.178;4.450;2023-07-31T13:20:05;13.82;;;5.75;;
25936;SDS011;13733;51.178;4.450;2023-07-31T13:22:32;8.65;;;4.85;;
25936;SDS011;13733;51.178;4.450;2023-07-31T13:24:58;10.30;;;5.70;;
25936;SDS011;13733;51.178;4.450;2023-07-31T13:27:23;12.10;;;5.50;;
25936;SDS011;13733;51.178;4.450;2023-07-31T13:29:50;11.02;;;5.95;;
25936;SDS011;13733;51.178;4.450;2023-07-31T13:32:16;14.60;;;6.18;;
25936;SDS011;13733;51.178;4.450;2023-07-31T13:34:44;11.93;;;5.72;;
25936;SDS011;13733;51.178;4.450;2023-07-31T13:37:09;11.73;;;6.13;;
25936;SDS011;13733;51.178;4.450;2023-07-31T13:39:35;11.27;;;6.30;;
25936;SDS011;13733;51.178;4.450;2023-07-31T13:42:03;13.45;;;6.40;;
25936;SDS011;13733;51.178;4.450;2023-07-31T13:44:31;9.10;;;5.57;;
25936;SDS011;13733;51.178;4.450;2023-07-31T13:46:57;9.77;;;4.78;;
25936;SDS011;13733;51.178;4.450;2023-07-31T13:49:23;9.45;;;4.80;;
25936;SDS011;13733;51.178;4.450;2023-07-31T13:51:49;9.15;;;4.88;;
25936;SDS011;13733;51.178;4.450;2023-07-31T13:54:15;7.57;;;4.88;;
25936;SDS011;13733;51.178;4.450;2023-07-31T13:56:42;8.80;;;4.38;;
25936;SDS011;13733;51.178;4.450;2023-07-31T13:59:09;6.65;;;3.83;;
25936;SDS011;13733;51.178;4.450;2023-07-31T14:01:35;8.07;;;3.28;;
25936;SDS011;13733;51.178;4.450;2023-07-31T14:04:01;5.68;;;3.25;;
25936;SDS011;13733;51.178;4.450;2023-07-31T14:06:27;5.68;;;3.83;;
25936;SDS011;13733;51.178;4.450;2023-07-31T14:08:53;5.13;;;3.22;;
25936;SDS011;13733;51.178;4.450;2023-07-31T14:11:21;9.90;;;3.08;;
25936;SDS011;13733;51.178;4.450;2023-07-31T14:13:47;4.63;;;2.85;;
25936;SDS011;13733;51.178;4.450;2023-07-31T14:16:13;8.75;;;2.85;;
25936;SDS011;13733;51.178;4.450;2023-07-31T14:18:39;5.50;;;2.63;;
25936;SDS011;13733;51.178;4.450;2023-07-31T14:21:04;7.40;;;2.80;;
25936;SDS011;13733;51.178;4.450;2023-07-31T14:23:30;6.78;;;3.15;;
25936;SDS011;13733;51.178;4.450;2023-07-31T14:25:56;5.47;;;2.80;;
25936;SDS011;13733;51.178;4.450;2023-07-31T14:28:22;6.05;;;2.47;;
25936;SDS011;13733;51.178;4.450;2023-07-31T14:30:48;5.55;;;2.70;;
25936;SDS011;13733;51.178;4.450;2023-07-31T14:33:14;4.35;;;2.75;;
25936;SDS011;13733;51.178;4.450;2023-07-31T14:35:40;5.05;;;3.13;;
25936;SDS011;13733;51.178;4.450;2023-07-31T14:38:06;5.30;;;2.97;;
25936;SDS011;13733;51.178;4.450;2023-07-31T14:40:31;6.15;;;2.78;;
25936;SDS011;13733;51.178;4.450;2023-07-31T14:42:57;8.65;;;3.67;;
25936;SDS011;13733;51.178;4.450;2023-07-31T14:45:23;4.07;;;3.17;;
25936;SDS011;13733;51.178;4.450;2023-07-31T14:47:49;6.57;;;2.90;;
25936;SDS011;13733;51.178;4.450;2023-07-31T14:50:15;5.50;;;3.40;;
25936;SDS011;13733;51.178;4.450;2023-07-31T14:52:41;8.27;;;3.33;;
25936;SDS011;13733;51.178;4.450;2023-07-31T14:55:07;7.00;;;3.67;;
25936;SDS011;13733;51.178;4.450;2023-07-31T14:57:34;5.82;;;3.60;;
25936;SDS011;13733;51.178;4.450;2023-07-31T15:00:00;6.75;;;3.92;;
25936;SDS011;13733;51.178;4.450;2023-07-31T15:02:26;6.32;;;3.80;;